Time;durP1;ratioP1;P1;durP2;ratioP2;P2;SDS_P1;SDS_P2;PMS_P1;PMS_P2;Temp;Humidity;BMP_temperature;BMP_pressure;BME280_temperature;BME280_humidity;BME280_pressure;Samples;Min_cycle;Max_cycle;Signal;HPM_P1;HPM_P2
2023/12/18 00:00:49;;;;;;;21.45;10.20;;;;;;;1.58;72.36;101593.44;3155540;28;20070;-74
2023/12/18 00:02:21;;;;;;;21.67;10.77;;;;;;;1.62;72.25;101596.94;3155258;28;20047;-73
2023/12/18 00:03:51;;;;;;;19.48;9.90;;;;;;;1.62;72.21;101588.38;3155378;28;20243;-73
2023/12/18 00:05:25;;;;;;;20.60;10.10;;;;;;;1.62;72.28;101586.66;3155486;28;20482;-74
2023/12/18 00:06:55;;;;;;;;;;;;;;;1.50;72.59;101582.16;3156264;28;20533;-73
2023/12/18 00:08:27;;;;;;;21.58;9.50;;;;;;;1.53;72.70;101589.91;3160621;28;19923;-74
2023/12/18 00:09:58;;;;;;;19.80;10.05;;;;;;;1.51;72.49;101576.22;3155676;28;20058;-74
2023/12/18 00:11:30;;;;;;;22.13;9.90;;;;;;;1.57;72.43;101586.59;3155162;28;20056;-73
2023/12/18 00:13:01;;;;;;;22.70;9.95;;;;;;;1.58;72.39;101583.19;3155230;28;20052;-73
2023/12/18 00:14:32;;;;;;;20.55;9.63;;;;;;;1.58;72.33;101580.63;3156822;28;20082;-73
2023/12/18 00:16:05;;;;;;;23.33;10.85;;;;;;;1.60;72.24;101575.53;3155381;28;20074;-73
2023/12/18 00:17:36;;;;;;;20.90;9.60;;;;;;;1.49;72.28;101554.75;3164800;28;20173;-73
2023/12/18 00:19:08;;;;;;;22.65;9.52;;;;;;;1.62;72.25;101578.97;3169323;28;20182;-73
2023/12/18 00:20:40;;;;;;;18.42;9.88;;;;;;;1.64;72.31;101571.31;3167999;28;20543;-73
2023/12/18 00:22:12;;;;;;;19.90;10.15;;;;;;;1.60;72.18;101562.69;3167908;28;20051;-73
2023/12/18 00:23:43;;;;;;;18.02;9.13;;;;;;;1.63;72.24;101561.84;3156907;28;20055;-74
2023/12/18 00:25:15;;;;;;;20.27;9.18;;;;;;;1.66;72.18;101564.50;3157418;28;20048;-74
2023/12/18 00:26:46;;;;;;;18.65;9.55;;;;;;;1.67;72.14;101571.38;3155473;28;20063;-74
2023/12/18 00:28:17;;;;;;;20.15;9.52;;;;;;;1.65;72.06;101565.31;3158882;28;20054;-74
2023/12/18 00:29:48;;;;;;;19.35;9.35;;;;;;;1.53;72.10;101527.44;3162522;28;20047;-66
2023/12/18 00:31:20;;;;;;;19.90;8.45;;;;;;;1.68;72.04;101555.97;3167664;28;20139;-70
2023/12/18 00:32:51;;;;;;;17.90;9.10;;;;;;;1.68;72.08;101555.97;3165978;28;20055;-72
2023/12/18 00:34:23;;;;;;;20.40;9.25;;;;;;;1.66;72.03;101551.66;3166393;28;20149;-70
2023/12/18 00:35:55;;;;;;;24.80;10.30;;;;;;;1.67;72.10;101549.13;3154910;28;20055;-71
2023/12/18 00:37:27;;;;;;;21.25;9.80;;;;;;;1.66;72.20;101552.53;3158683;28;20142;-71
2023/12/18 00:38:58;;;;;;;17.40;8.68;;;;;;;1.68;72.14;101549.97;3155227;28;20117;-71
2023/12/18 00:40:29;;;;;;;20.00;9.40;;;;;;;1.70;72.08;101553.44;3154871;28;20052;-71
2023/12/18 00:42:00;;;;;;;18.65;9.43;;;;;;;1.32;72.00;101485.09;3154813;28;20501;-71
2023/12/18 00:43:32;;;;;;;19.05;8.95;;;;;;;1.70;72.01;101554.31;3164407;28;20048;-71
2023/12/18 00:45:03;;;;;;;21.02;9.32;;;;;;;1.30;71.95;101481.66;3167590;28;20579;-71
2023/12/18 00:46:35;;;;;;;21.70;9.27;;;;;;;1.74;72.06;101560.38;3167794;28;20044;-70
2023/12/18 00:48:08;;;;;;;18.25;9.57;;;;;;;1.74;72.07;101555.22;3160728;28;20068;-70
2023/12/18 00:49:39;;;;;;;20.77;9.93;;;;;;;1.70;71.96;101558.59;3161274;28;20150;-72
2023/12/18 00:51:12;;;;;;;20.90;9.13;;;;;;;1.72;71.88;101565.50;3155018;28;20201;-70
2023/12/18 00:52:43;;;;;;;18.42;9.65;;;;;;;1.76;71.87;101564.69;3160122;28;20039;-70
2023/12/18 00:54:15;;;;;;;21.25;10.18;;;;;;;1.76;71.90;101566.41;3154875;28;20197;-71
2023/12/18 00:55:45;;;;;;;19.58;9.40;;;;;;;1.73;72.01;101559.50;3154883;28;20595;-71
2023/12/18 00:57:17;;;;;;;19.10;9.30;;;;;;;1.73;71.82;101561.22;3152738;28;20039;-72
2023/12/18 00:58:48;;;;;;;19.33;9.60;;;;;;;1.73;71.94;101550.94;3152910;28;20392;-72
2023/12/18 01:00:20;;;;;;;21.27;8.95;;;;;;;1.61;71.90;101546.44;3163385;28;20047;-72
2023/12/18 01:01:51;;;;;;;21.63;9.70;;;;;;;1.76;71.94;101571.53;3153175;28;20497;-72
2023/12/18 01:03:23;;;;;;;17.20;8.48;;;;;;;1.76;71.89;101571.53;3152702;28;20140;-71
2023/12/18 01:04:53;;;;;;;19.02;8.63;;;;;;;1.74;71.90;101568.94;3164807;28;20705;-72
2023/12/18 01:06:27;;;;;;;18.42;8.38;;;;;;;1.75;71.85;101569.81;3156584;28;20158;-72
2023/12/18 01:07:58;;;;;;;17.27;8.48;;;;;;;1.67;71.95;101554.25;3154700;28;20098;-72
2023/12/18 01:09:30;;;;;;;22.23;9.95;;;;;;;1.67;71.92;101558.53;3162424;28;20051;-72
2023/12/18 01:11:01;;;;;;;19.35;8.75;;;;;;;1.68;72.05;101558.53;3165551;28;20047;-72
2023/12/18 01:12:33;;;;;;;17.95;8.75;;;;;;;1.72;71.88;101570.63;3159290;28;20055;-70
2023/12/18 01:14:03;;;;;;;18.08;8.65;;;;;;;1.72;71.81;101565.50;3161134;28;20082;-70
2023/12/18 01:15:35;;;;;;;19.98;8.52;;;;;;;1.73;71.86;101566.34;3159265;28;20878;-70
2023/12/18 01:17:06;;;;;;;17.95;8.30;;;;;;;1.70;71.72;101553.44;3152601;28;20080;-70
2023/12/18 01:18:38;;;;;;;17.75;8.55;;;;;;;1.71;71.73;101558.59;3156893;28;20050;-70
2023/12/18 01:20:09;;;;;;;20.13;8.63;;;;;;;1.68;71.75;101540.56;3162075;28;20192;-70
2023/12/18 01:21:42;;;;;;;17.58;8.60;;;;;;;1.70;71.67;101545.75;3158451;28;20128;-70
2023/12/18 01:23:13;;;;;;;16.65;8.60;;;;;;;1.69;71.70;101544.03;3152757;28;20398;-70
2023/12/18 01:24:45;;;;;;;16.15;8.38;;;;;;;1.68;71.55;101534.56;3153400;28;20059;-70
2023/12/18 01:26:16;;;;;;;19.60;9.40;;;;;;;1.67;71.59;101536.28;3154663;28;20060;-70
2023/12/18 01:27:48;;;;;;;18.70;9.18;;;;;;;1.58;71.51;101518.13;3152736;28;20120;-69
2023/12/18 01:29:19;;;;;;;19.67;8.57;;;;;;;1.54;71.46;101508.66;3164607;28;20055;-70
2023/12/18 01:30:51;;;;;;;17.38;7.78;;;;;;;1.71;71.46;101535.47;3153555;28;20454;-70
2023/12/18 01:32:22;;;;;;;18.35;8.90;;;;;;;1.67;71.40;101522.56;3152713;28;20052;-69
2023/12/18 01:33:54;;;;;;;21.27;9.55;;;;;;;1.67;71.44;101518.28;3162904;28;20119;-70
2023/12/18 01:35:26;;;;;;;18.25;9.10;;;;;;;1.66;71.54;101513.16;3155869;28;20157;-70
2023/12/18 01:36:58;;;;;;;19.25;8.52;;;;;;;1.72;71.17;101513.25;3156454;28;20113;-69
2023/12/18 01:38:30;;;;;;;16.85;8.57;;;;;;;1.71;71.31;101509.81;3151976;28;20533;-68
2023/12/18 01:40:01;;;;;;;19.88;8.65;;;;;;;1.74;71.21;101503.84;3152401;28;20059;-69
2023/12/18 01:41:33;;;;;;;18.88;9.25;;;;;;;1.75;71.06;101503.03;3152360;28;20580;-69
2023/12/18 01:43:22;;;;;;;18.70;9.23;;;;;;;1.65;70.99;101486.56;3152623;28;20058;-67
2023/12/18 01:44:53;;;;;;;19.10;8.88;;;;;;;1.76;71.03;101502.19;3157458;28;20079;-69
2023/12/18 01:46:25;;;;;;;21.65;9.68;;;;;;;1.70;71.02;101484.09;3156474;28;20051;-69
2023/12/18 01:47:57;;;;;;;20.80;9.13;;;;;;;1.77;70.98;101489.34;3152553;28;20060;-72
2023/12/18 01:49:28;;;;;;;21.25;9.80;;;;;;;1.34;71.14;101418.41;3156803;28;20812;-72
2023/12/18 01:51:01;;;;;;;20.30;8.77;;;;;;;1.74;71.11;101479.03;3164850;28;20051;-72
2023/12/18 01:52:34;;;;;;;15.80;8.23;;;;;;;1.73;71.28;101490.16;3162288;28;20098;-70
2023/12/18 01:54:06;;;;;;;;;;;;;;;1.61;71.50;101481.38;3152981;28;20453;-69
2023/12/18 01:55:38;;;;;;;15.88;8.05;;;;;;;1.50;71.53;101461.47;3153896;28;20266;-73
2023/12/18 01:57:11;;;;;;;17.65;8.65;;;;;;;1.67;71.49;101489.19;3162357;28;20522;-76
2023/12/18 01:58:44;;;;;;;18.73;7.72;;;;;;;1.68;71.39;101491.75;3152653;28;20052;-76
2023/12/18 02:00:16;;;;;;;16.70;7.60;;;;;;;1.68;71.50;101485.78;3162974;28;20059;-75
2023/12/18 02:01:48;;;;;;;19.93;8.67;;;;;;;1.66;71.42;101487.47;3152375;28;20052;-75
2023/12/18 02:03:21;;;;;;;19.55;8.65;;;;;;;1.68;71.46;101484.06;3152294;28;20400;-75
2023/12/18 02:04:51;;;;;;;16.30;7.93;;;;;;;1.66;71.27;101475.50;3154334;28;20526;-70
2023/12/18 02:06:25;;;;;;;16.70;7.68;;;;;;;1.69;71.25;101483.25;3154210;28;20059;-75
2023/12/18 02:07:57;;;;;;;17.83;7.55;;;;;;;1.70;71.18;101491.81;3152430;28;20538;-75
2023/12/18 02:09:29;;;;;;;18.63;7.80;;;;;;;1.71;71.16;101494.38;3161618;28;20584;-74
2023/12/18 02:11:00;;;;;;;15.95;7.72;;;;;;;1.68;71.11;101476.34;3155992;28;20106;-75
2023/12/18 02:12:32;;;;;;;18.05;8.60;;;;;;;1.69;71.10;101477.25;3152082;28;20059;-75
2023/12/18 02:14:04;;;;;;;16.05;7.85;;;;;;;1.75;71.02;101492.78;3153050;28;20048;-75
2023/12/18 02:15:36;;;;;;;16.92;7.47;;;;;;;1.74;71.17;101480.75;3160733;28;20054;-75
2023/12/18 02:17:07;;;;;;;15.57;7.88;;;;;;;1.65;71.02;101467.75;3161398;28;20138;-74
2023/12/18 02:18:43;;;;;;;13.18;6.57;;;;;;;1.75;70.95;101487.63;3160175;28;20059;-76
2023/12/18 02:20:14;;;;;;;13.77;7.13;;;;;;;1.74;71.00;101483.31;3156376;28;20667;-75
2023/12/18 02:21:46;;;;;;;17.55;7.70;;;;;;;1.76;70.87;101489.34;3152376;28;20044;-76
2023/12/18 02:23:18;;;;;;;14.95;7.57;;;;;;;1.78;70.92;101495.38;3155252;28;20428;-76
2023/12/18 02:24:50;;;;;;;14.07;7.50;;;;;;;1.77;71.00;101485.94;3164749;28;20603;-75
2023/12/18 02:26:21;;;;;;;15.68;7.55;;;;;;;1.75;70.90;101474.78;3162923;28;20070;-75
2023/12/18 02:27:53;;;;;;;14.55;7.20;;;;;;;1.78;70.93;101477.41;3152663;28;20119;-72
2023/12/18 02:29:24;;;;;;;14.80;6.97;;;;;;;1.78;70.86;101478.28;3164390;28;20058;-70
2023/12/18 02:30:56;;;;;;;13.75;6.90;;;;;;;1.79;70.92;101471.41;3152025;28;20052;-70
2023/12/18 02:32:26;;;;;;;15.25;7.40;;;;;;;1.77;70.87;101476.53;3151729;28;20897;-70
2023/12/18 02:33:58;;;;;;;14.13;6.95;;;;;;;1.77;70.91;101470.53;3153727;28;20172;-70
2023/12/18 02:35:29;;;;;;;13.60;6.78;;;;;;;1.78;70.86;101472.28;3153601;28;20060;-70
2023/12/18 02:37:01;;;;;;;14.73;7.47;;;;;;;1.77;70.87;101466.25;3161506;28;20491;-72
2023/12/18 02:38:34;;;;;;;13.63;6.28;;;;;;;1.73;70.81;101458.47;3155624;28;20056;-69
2023/12/18 02:40:07;;;;;;;16.05;7.43;;;;;;;1.78;70.87;101462.00;3159829;28;20059;-69
2023/12/18 02:41:37;;;;;;;15.77;7.10;;;;;;;1.80;70.90;101483.41;3162048;28;20047;-72
2023/12/18 02:43:10;;;;;;;16.15;7.15;;;;;;;1.80;70.90;101474.03;3153615;28;20057;-69
2023/12/18 02:44:41;;;;;;;14.98;6.32;;;;;;;1.80;70.94;101470.56;3158607;28;20460;-70
2023/12/18 02:46:13;;;;;;;16.33;7.38;;;;;;;1.81;70.90;101477.47;3151616;28;20052;-70
2023/12/18 02:47:44;;;;;;;15.82;7.45;;;;;;;1.75;70.94;101467.94;3151911;28;20040;-70
2023/12/18 02:49:16;;;;;;;18.52;7.82;;;;;;;1.84;71.04;101486.94;3154574;28;20059;-70
2023/12/18 02:50:47;;;;;;;15.38;7.00;;;;;;;1.78;71.02;101468.00;3161841;28;20051;-70
2023/12/18 02:52:18;;;;;;;15.30;6.95;;;;;;;1.84;70.92;101479.22;3151661;28;20508;-70
2023/12/18 02:53:52;;;;;;;16.60;6.47;;;;;;;1.83;70.91;101470.63;3151567;28;20063;-70
2023/12/18 02:55:23;;;;;;;17.42;7.75;;;;;;;1.80;70.98;101471.47;3151964;28;20082;-70
2023/12/18 02:56:54;;;;;;;12.88;6.68;;;;;;;1.79;71.13;101458.59;3163936;28;20138;-70
2023/12/18 02:58:25;;;;;;;14.88;7.05;;;;;;;1.79;71.05;101456.00;3163878;28;20055;-71
2023/12/18 02:59:57;;;;;;;15.70;6.50;;;;;;;1.82;70.97;101458.63;3160693;28;20052;-72
2023/12/18 03:01:28;;;;;;;14.45;7.25;;;;;;;1.77;71.00;101450.84;3163817;28;20095;-73
2023/12/18 03:03:00;;;;;;;15.43;7.05;;;;;;;1.84;71.03;101463.81;3164091;28;20062;-72
2023/12/18 03:04:31;;;;;;;13.63;6.72;;;;;;;1.85;70.98;101474.09;3151512;28;20267;-73
2023/12/18 03:06:02;;;;;;;16.85;7.22;;;;;;;1.85;71.12;101475.81;3158841;28;20149;-73
2023/12/18 03:07:33;;;;;;;14.60;6.32;;;;;;;1.86;71.13;101473.25;3163859;28;20485;-72
2023/12/18 03:09:06;;;;;;;15.13;7.45;;;;;;;1.85;71.01;101476.66;3158238;28;20052;-72
2023/12/18 03:10:37;;;;;;;17.48;8.40;;;;;;;1.86;71.05;101477.53;3156770;28;20058;-74
2023/12/18 03:12:09;;;;;;;14.85;7.50;;;;;;;1.83;71.10;101473.19;3159896;28;20052;-74
2023/12/18 03:13:40;;;;;;;13.77;7.07;;;;;;;1.68;71.10;101450.69;3152901;28;20059;-73
2023/12/18 03:15:11;;;;;;;16.60;7.28;;;;;;;1.69;71.08;101455.00;3151615;28;20052;-73
2023/12/18 03:16:42;;;;;;;17.67;8.15;;;;;;;1.76;71.08;101473.94;3153270;28;20090;-73
2023/12/18 03:18:14;;;;;;;14.82;7.38;;;;;;;1.81;71.09;101491.16;3159228;28;20549;-74
2023/12/18 03:19:45;;;;;;;16.38;7.72;;;;;;;1.78;71.13;101485.13;3164108;28;20070;-73
2023/12/18 03:21:17;;;;;;;14.45;7.20;;;;;;;1.71;71.18;101476.41;3151575;28;20066;-72
2023/12/18 03:22:47;;;;;;;14.93;6.97;;;;;;;1.72;71.45;101485.88;3160758;28;20140;-72
2023/12/18 03:24:21;;;;;;;15.65;7.07;;;;;;;1.70;71.56;101484.09;3163816;28;20403;-72
2023/12/18 03:25:51;;;;;;;;;;;;;;;1.54;71.90;101480.41;3164486;28;20047;-72
2023/12/18 03:27:23;;;;;;;13.95;6.43;;;;;;;1.56;72.04;101482.13;3154396;28;19935;-73
2023/12/18 03:28:54;;;;;;;16.80;7.95;;;;;;;1.45;72.03;101458.00;3151633;28;20588;-72
2023/12/18 03:30:26;;;;;;;18.63;7.70;;;;;;;1.52;71.95;101470.09;3159312;28;20146;-72
2023/12/18 03:31:57;;;;;;;20.23;7.40;;;;;;;1.54;72.12;101468.44;3157226;28;20063;-73
2023/12/18 03:33:28;;;;;;;20.73;8.60;;;;;;;1.56;72.06;101468.44;3156101;28;20083;-72
2023/12/18 03:34:59;;;;;;;20.52;7.50;;;;;;;1.55;72.19;101464.16;3151460;28;20066;-73
2023/12/18 03:36:31;;;;;;;15.55;6.88;;;;;;;1.57;71.95;101473.63;3151629;28;20109;-73
2023/12/18 03:38:02;;;;;;;20.52;8.48;;;;;;;1.58;72.17;101469.34;3160436;28;20108;-73
2023/12/18 03:39:35;;;;;;;18.40;8.63;;;;;;;1.54;72.12;101457.28;3153670;28;20113;-73
2023/12/18 03:41:06;;;;;;;17.23;8.02;;;;;;;1.51;72.03;101447.84;3163792;28;20733;-74
2023/12/18 03:42:40;;;;;;;20.13;8.50;;;;;;;1.39;72.10;101431.31;3157722;28;20350;-76
2023/12/18 03:44:10;;;;;;;17.73;7.75;;;;;;;1.55;72.19;101451.31;3159666;28;20052;-75
2023/12/18 03:45:42;;;;;;;17.25;7.95;;;;;;;1.57;72.04;101455.66;3162685;28;20615;-75
2023/12/18 03:47:13;;;;;;;16.33;7.43;;;;;;;1.55;72.08;101449.59;3160926;28;20363;-76
2023/12/18 03:48:45;;;;;;;14.23;6.75;;;;;;;1.58;71.92;101453.94;3151366;28;20140;-74
2023/12/18 03:50:17;;;;;;;15.88;7.60;;;;;;;1.55;71.94;101441.91;3151677;28;20413;-75
2023/12/18 03:51:48;;;;;;;16.10;7.70;;;;;;;1.59;72.01;101451.38;3151128;28;20175;-75
2023/12/18 03:53:20;;;;;;;14.55;6.60;;;;;;;1.62;71.89;101454.84;3151349;28;20062;-76
2023/12/18 03:54:52;;;;;;;16.98;7.32;;;;;;;1.64;71.77;101455.75;3151227;28;20055;-76
2023/12/18 03:56:24;;;;;;;12.80;6.35;;;;;;;1.63;71.90;101444.63;3151365;28;20576;-73
2023/12/18 03:57:54;;;;;;;15.70;6.88;;;;;;;1.62;71.79;101439.44;3150667;28;20775;-74
2023/12/18 03:59:26;;;;;;;12.95;6.80;;;;;;;1.61;71.81;101438.59;3154974;28;20056;-74
2023/12/18 04:00:57;;;;;;;12.05;6.40;;;;;;;1.62;71.76;101439.44;3158014;28;20052;-74
2023/12/18 04:02:29;;;;;;;14.50;6.00;;;;;;;1.58;71.75;101431.69;3155336;28;20070;-74
2023/12/18 04:04:00;;;;;;;12.98;6.60;;;;;;;1.61;71.90;101432.59;3151462;28;20080;-74
2023/12/18 04:05:32;;;;;;;13.20;6.35;;;;;;;1.63;71.95;101441.16;3154506;28;20066;-74
2023/12/18 04:07:03;;;;;;;13.43;6.05;;;;;;;1.65;71.88;101444.63;3161187;28;20051;-74
2023/12/18 04:08:35;;;;;;;15.82;7.03;;;;;;;1.66;71.79;101441.25;3151373;28;20513;-74
2023/12/18 04:10:09;;;;;;;15.57;6.47;;;;;;;1.67;71.71;101438.69;3156863;28;20129;-74
2023/12/18 04:11:40;;;;;;;12.85;6.18;;;;;;;1.68;71.71;101442.13;3151188;28;20118;-75
2023/12/18 04:13:11;;;;;;;12.48;6.20;;;;;;;1.56;71.70;101428.22;3151922;28;20255;-70
2023/12/18 04:14:43;;;;;;;14.93;7.05;;;;;;;1.68;71.84;101444.69;3151331;28;20559;-72
2023/12/18 04:16:14;;;;;;;13.07;6.13;;;;;;;1.65;71.73;101444.63;3162770;28;20146;-73
2023/12/18 04:17:46;;;;;;;15.82;6.68;;;;;;;1.69;71.66;101446.44;3152764;28;20071;-73
2023/12/18 04:19:17;;;;;;;14.55;6.72;;;;;;;1.71;71.77;101448.16;3152220;28;20671;-73
2023/12/18 04:20:49;;;;;;;13.27;6.65;;;;;;;1.72;71.69;101452.47;3154695;28;20048;-73
2023/12/18 04:22:19;;;;;;;15.35;6.28;;;;;;;1.72;71.59;101447.34;3164839;28;20048;-73
2023/12/18 04:23:51;;;;;;;15.00;6.40;;;;;;;1.75;71.52;101449.09;3168708;28;20055;-74
2023/12/18 04:25:24;;;;;;;13.00;6.05;;;;;;;1.65;71.56;101434.34;3168544;28;20444;-73
2023/12/18 04:26:56;;;;;;;12.25;5.57;;;;;;;1.72;71.55;101454.19;3162153;28;20059;-74
2023/12/18 04:28:27;;;;;;;13.95;6.20;;;;;;;1.75;71.88;101461.94;3156535;28;20090;-73
2023/12/18 04:29:58;;;;;;;12.55;6.35;;;;;;;1.71;71.57;101453.28;3155901;28;20104;-74
2023/12/18 04:31:30;;;;;;;12.52;6.20;;;;;;;1.71;71.59;101448.16;3160004;28;20325;-75
2023/12/18 04:33:01;;;;;;;12.18;6.38;;;;;;;1.72;71.65;101446.47;3158527;28;20044;-75
2023/12/18 04:34:32;;;;;;;13.38;6.38;;;;;;;1.75;nan;101459.38;3158572;28;20528;-76
2023/12/18 04:36:04;;;;;;;15.93;6.82;;;;;;;1.73;71.58;101453.34;3159494;28;20059;-76
2023/12/18 04:37:35;;;;;;;15.02;6.47;;;;;;;1.74;71.60;101455.91;3170982;28;20055;-76
2023/12/18 04:39:07;;;;;;;14.98;6.97;;;;;;;1.75;71.46;101461.94;3164146;28;20090;-72
2023/12/18 04:40:39;;;;;;;16.55;6.78;;;;;;;1.65;71.52;101445.50;3170619;28;20055;-73
2023/12/18 04:42:11;;;;;;;14.38;6.55;;;;;;;1.78;71.40;101459.44;3168000;28;20508;-72
2023/12/18 04:43:42;;;;;;;14.70;6.25;;;;;;;1.79;71.39;101468.84;3163139;28;20546;-72
2023/12/18 04:45:14;;;;;;;13.70;6.65;;;;;;;1.84;71.48;101479.22;3169748;28;20100;-71
2023/12/18 04:46:46;;;;;;;18.73;8.10;;;;;;;1.84;71.32;101474.94;3158667;28;20040;-71
2023/12/18 04:48:18;;;;;;;26.30;10.20;;;;;;;1.83;71.33;101468.06;3162010;28;20040;-74
2023/12/18 04:49:50;;;;;;;20.80;9.77;;;;;;;1.83;71.42;101470.63;3165513;28;20312;-72
2023/12/18 04:51:21;;;;;;;20.10;9.15;;;;;;;1.81;71.39;101465.47;3170901;28;20275;-69
2023/12/18 04:52:52;;;;;;;21.27;9.32;;;;;;;1.81;71.47;101462.91;3158350;28;20055;-71
2023/12/18 04:54:24;;;;;;;20.88;8.98;;;;;;;1.79;71.43;101469.72;3157980;28;20093;-71
2023/12/18 04:55:56;;;;;;;17.77;7.82;;;;;;;1.78;71.49;101473.13;3159445;28;20070;-71
2023/12/18 04:57:28;;;;;;;14.88;7.80;;;;;;;1.77;71.70;101475.66;3161197;28;20058;-67
2023/12/18 04:58:58;;;;;;;16.27;7.88;;;;;;;1.76;71.73;101485.06;3159286;28;20052;-72
2023/12/18 05:00:30;;;;;;;17.08;7.40;;;;;;;1.70;71.77;101473.84;3164406;28;20043;-75
2023/12/18 05:02:01;;;;;;;16.40;7.15;;;;;;;1.70;71.99;101476.41;3171032;28;20062;-74
2023/12/18 05:03:33;;;;;;;16.85;8.35;;;;;;;1.73;71.85;101479.88;3170618;28;20131;-68
2023/12/18 05:05:04;;;;;;;16.25;7.18;;;;;;;1.73;72.00;101484.16;3171075;28;20467;-69
2023/12/18 05:06:35;;;;;;;27.88;13.32;;;;;;;1.70;71.96;101481.53;3167034;28;20302;-68
2023/12/18 05:08:09;;;;;;;36.55;16.90;;;;;;;1.76;71.93;101484.22;3170730;28;20131;-71
2023/12/18 05:09:40;;;;;;;;;;;;;;;1.63;72.27;101479.69;3171404;28;20052;-68
2023/12/18 05:11:12;;;;;;;20.48;9.27;;;;;;;1.65;72.40;101473.75;3160936;28;19931;-69
2023/12/18 05:12:44;;;;;;;20.15;8.02;;;;;;;1.67;72.33;101468.66;3158032;28;20150;-67
2023/12/18 05:14:15;;;;;;;18.38;8.48;;;;;;;1.63;72.30;101456.56;3161255;28;20055;-69
2023/12/18 05:15:47;;;;;;;20.05;8.13;;;;;;;1.66;72.75;101470.34;3161107;28;20132;-65
2023/12/18 05:17:18;;;;;;;18.75;8.40;;;;;;;1.64;72.57;101459.19;3151909;28;20044;-75
2023/12/18 05:18:50;;;;;;;252.82;100.68;;;;;;;1.65;72.54;101460.91;3158907;28;20048;-74
2023/12/18 05:20:20;;;;;;;134.45;55.08;;;;;;;1.67;72.72;101453.22;3158368;28;20589;-67
2023/12/18 05:21:52;;;;;;;106.70;41.13;;;;;;;1.67;72.67;101443.81;3162195;28;20057;-75
2023/12/18 05:23:23;;;;;;;131.50;48.55;;;;;;;1.33;72.36;101389.31;3170540;28;20059;-68
2023/12/18 05:24:55;;;;;;;34.33;16.83;;;;;;;1.76;72.62;101443.97;3170705;28;20058;-68
2023/12/18 05:26:27;;;;;;;23.30;10.57;;;;;;;1.70;72.64;101432.75;3170295;28;20077;-68
2023/12/18 05:27:58;;;;;;;20.35;11.20;;;;;;;1.71;72.44;101439.59;3161066;28;20047;-69
2023/12/18 05:29:29;;;;;;;21.90;9.48;;;;;;;1.73;72.50;101443.06;3159231;28;20051;-66
2023/12/18 05:31:02;;;;;;;22.13;9.82;;;;;;;1.71;72.63;101442.16;3170682;28;20071;-71
2023/12/18 05:32:32;;;;;;;19.33;10.15;;;;;;;1.69;72.67;101442.16;3166252;28;20136;-69
2023/12/18 05:34:05;;;;;;;22.58;9.35;;;;;;;1.66;72.71;101442.09;3169430;28;20504;-66
2023/12/18 05:35:37;;;;;;;18.33;9.63;;;;;;;1.69;72.73;101438.72;3164993;28;20552;-66
2023/12/18 05:37:08;;;;;;;19.10;9.23;;;;;;;1.63;72.82;101430.88;3166516;28;20062;-65
2023/12/18 05:38:42;;;;;;;20.58;9.40;;;;;;;1.67;72.81;101441.25;3164462;28;20421;-66
2023/12/18 05:40:14;;;;;;;23.88;10.23;;;;;;;1.67;72.85;101438.69;3169196;28;20051;-66
2023/12/18 05:41:46;;;;;;;18.75;9.43;;;;;;;1.66;72.87;101436.97;3158029;28;20444;-66
2023/12/18 05:43:18;;;;;;;19.33;9.52;;;;;;;1.64;72.90;101428.38;3167319;28;20482;-67
2023/12/18 05:44:49;;;;;;;19.80;9.52;;;;;;;1.65;73.05;101442.06;3166526;28;20548;-67
2023/12/18 05:46:21;;;;;;;20.58;10.43;;;;;;;1.65;73.03;101436.94;3160667;28;20139;-67
2023/12/18 05:47:52;;;;;;;20.38;10.05;;;;;;;1.61;72.97;101430.03;3157420;28;20520;-68
2023/12/18 05:49:23;;;;;;;21.38;10.02;;;;;;;1.63;73.12;101434.34;3166589;28;20047;-66
2023/12/18 05:50:54;;;;;;;18.08;9.27;;;;;;;1.65;73.20;101442.06;3161925;28;20458;-67
2023/12/18 05:52:27;;;;;;;19.55;9.88;;;;;;;1.64;73.01;101435.22;3165151;28;20051;-66
2023/12/18 05:53:57;;;;;;;20.90;10.02;;;;;;;1.63;73.18;101436.03;3169775;28;20167;-66
2023/12/18 05:55:29;;;;;;;23.65;9.55;;;;;;;1.62;73.42;101431.75;3170264;28;20069;-66
2023/12/18 05:57:02;;;;;;;21.13;9.63;;;;;;;1.53;73.33;101415.31;3168398;28;20104;-66
2023/12/18 05:58:33;;;;;;;20.73;10.07;;;;;;;1.59;73.36;101425.69;3156731;28;20099;-65
2023/12/18 06:00:07;;;;;;;21.58;10.80;;;;;;;1.60;73.36;101429.16;3166314;28;20047;-66
2023/12/18 06:01:37;;;;;;;35.35;16.73;;;;;;;1.59;73.36;101428.25;3158401;28;20043;-66
2023/12/18 06:03:09;;;;;;;119.78;51.65;;;;;;;1.61;73.52;101425.75;3168628;28;20195;-64
2023/12/18 06:04:41;;;;;;;192.02;82.03;;;;;;;1.65;73.54;101424.09;3170913;28;20047;-66
2023/12/18 06:06:13;;;;;;;40.70;19.17;;;;;;;1.68;73.53;101434.41;3163592;28;20063;-67
2023/12/18 06:07:45;;;;;;;26.38;12.27;;;;;;;1.69;73.59;101434.44;3160703;28;20050;-66
2023/12/18 06:09:17;;;;;;;23.65;12.38;;;;;;;1.70;73.47;101437.88;3156989;28;20048;-65
2023/12/18 06:10:52;;;;;;;39.42;15.95;;;;;;;1.71;73.41;101434.47;3161248;28;20056;-64
2023/12/18 06:12:26;;;;;;;52.47;20.73;;;;;;;1.66;73.50;101429.25;3168717;28;20245;-66
2023/12/18 06:13:58;;;;;;;58.35;24.25;;;;;;;1.71;73.59;101444.72;3166292;28;20039;-68
2023/12/18 06:15:30;;;;;;;54.03;23.95;;;;;;;1.73;73.72;101435.34;3169318;28;20107;-67
2023/12/18 06:17:01;;;;;;;51.80;23.17;;;;;;;1.75;73.74;101428.56;3170130;28;20112;-69
2023/12/18 06:18:34;;;;;;;48.53;24.20;;;;;;;1.80;73.99;101432.03;3169526;28;20051;-70
2023/12/18 06:20:06;;;;;;;48.78;21.95;;;;;;;1.84;74.02;101436.41;3169387;28;20086;-70
2023/12/18 06:21:41;;;;;;;43.63;20.20;;;;;;;1.92;74.11;101429.66;3169836;28;20078;-68
2023/12/18 06:23:12;;;;;;;40.45;19.83;;;;;;;1.97;74.08;101430.63;3157510;28;20101;-69
2023/12/18 06:24:44;;;;;;;43.25;20.50;;;;;;;2.09;73.96;101424.81;3156714;28;20541;-69
2023/12/18 06:26:14;;;;;;;45.00;19.02;;;;;;;2.18;74.03;101411.25;3156736;28;20051;-69
2023/12/18 06:27:47;;;;;;;43.60;19.50;;;;;;;2.26;73.95;101420.78;3156877;28;20044;-68
2023/12/18 06:29:18;;;;;;;38.60;18.25;;;;;;;2.32;73.90;101417.44;3164724;28;20063;-68
2023/12/18 06:30:50;;;;;;;35.80;18.23;;;;;;;2.42;73.82;101416.72;3157170;28;20437;-68
2023/12/18 06:32:21;;;;;;;40.10;18.50;;;;;;;2.50;73.70;101417.72;3164952;28;20047;-69
2023/12/18 06:33:53;;;;;;;37.50;16.75;;;;;;;2.55;73.79;101411.78;3162535;28;20441;-66
2023/12/18 06:35:24;;;;;;;41.55;17.08;;;;;;;2.67;73.50;101412.78;3162911;28;20508;-68
2023/12/18 06:36:56;;;;;;;31.17;14.35;;;;;;;2.76;73.33;101412.06;3163953;28;20062;-68
2023/12/18 06:38:28;;;;;;;35.17;15.43;;;;;;;2.84;73.14;101415.59;3161110;28;20051;-72
2023/12/18 06:39:59;;;;;;;25.00;12.73;;;;;;;2.92;72.87;101410.53;3161896;28;20059;-70
2023/12/18 06:41:31;;;;;;;26.65;13.15;;;;;;;2.99;72.73;101412.34;3165953;28;20305;-69
2023/12/18 06:43:04;;;;;;;34.15;15.98;;;;;;;3.09;72.51;101403.88;3156664;28;20048;-68
2023/12/18 06:44:36;;;;;;;41.72;18.60;;;;;;;3.18;72.43;101415.97;3156875;28;20130;-70
2023/12/18 06:46:06;;;;;;;34.95;16.40;;;;;;;3.27;72.26;101408.34;3158109;28;20051;-68
2023/12/18 06:47:38;;;;;;;29.58;14.18;;;;;;;3.35;72.02;101406.72;3168399;28;20119;-69
2023/12/18 06:49:09;;;;;;;33.58;15.13;;;;;;;3.45;71.93;101399.94;3156962;28;20054;-66
2023/12/18 06:50:41;;;;;;;34.22;15.25;;;;;;;3.55;71.50;101404.34;3156893;28;20101;-68
2023/12/18 06:52:13;;;;;;;31.33;15.57;;;;;;;3.63;71.17;101415.56;3156675;28;20048;-67
2023/12/18 06:53:45;;;;;;;24.35;10.40;;;;;;;3.72;71.24;101411.34;3156575;28;20466;-71
2023/12/18 06:55:16;;;;;;;28.33;12.00;;;;;;;3.79;70.82;101400.25;3166215;28;20051;-69
2023/12/18 06:56:47;;;;;;;39.97;15.65;;;;;;;3.86;70.61;101412.34;3169786;28;20136;-67
2023/12/18 06:58:20;;;;;;;34.97;14.02;;;;;;;3.96;70.34;101416.69;3165241;28;20048;-68
2023/12/18 06:59:52;;;;;;;28.38;11.95;;;;;;;4.01;70.27;101411.59;3166142;28;20051;-73
2023/12/18 07:01:22;;;;;;;30.33;12.20;;;;;;;4.10;70.13;101412.50;3159740;28;20056;-69
2023/12/18 07:02:54;;;;;;;27.02;12.30;;;;;;;4.20;69.69;101416.03;3160059;28;20055;-68
2023/12/18 07:04:26;;;;;;;28.48;13.13;;;;;;;4.29;69.57;101413.53;3168879;28;20051;-68
2023/12/18 07:05:57;;;;;;;28.25;12.80;;;;;;;4.33;69.27;101407.50;3169171;28;20048;-67